createdAt,value
2022-07-25T00:04:44.663Z,100019
2022-07-25T00:10:38.184Z,100011
2022-07-25T00:17:01.054Z,100009
2022-07-25T00:36:26.417Z,99991
2022-07-25T00:42:24.574Z,99993
2022-07-25T00:48:37.279Z,99976
2022-07-25T00:54:30.699Z,99971
2022-07-25T01:00:34.554Z,99965
2022-07-25T01:06:31.269Z,99958
2022-07-25T01:12:32.881Z,99964
2022-07-25T01:18:37.612Z,99954
2022-07-25T01:24:30.676Z,99950
2022-07-25T01:31:00.604Z,99938
2022-07-25T01:37:01.824Z,99941
2022-07-25T01:43:07.710Z,99940
2022-07-25T01:49:12.615Z,99938
2022-07-25T01:55:05.215Z,99936
2022-07-25T02:01:11.527Z,99929
2022-07-25T02:07:43.043Z,99924
2022-07-25T02:14:13.427Z,99919
2022-07-25T02:20:39.034Z,99905
2022-07-25T02:26:39.445Z,99901
2022-07-25T02:32:51.042Z,99892
2022-07-25T02:38:49.212Z,99886
2022-07-25T02:50:49.628Z,99879
2022-07-25T02:56:56.603Z,99872
2022-07-25T03:03:02.170Z,99869
2022-07-25T03:09:09.565Z,99861
2022-07-25T03:15:20.352Z,99853
2022-07-25T03:21:26.225Z,99855
2022-07-25T03:40:25.939Z,99842
2022-07-25T03:52:45.056Z,99832
2022-07-25T03:58:48.815Z,99816
2022-07-25T04:17:02.073Z,99812
2022-07-25T04:23:37.980Z,99809
2022-07-25T04:35:47.171Z,99798
2022-07-25T04:41:39.949Z,99795
2022-07-25T04:47:31.309Z,99788
2022-07-25T04:53:23.457Z,99777
2022-07-25T04:59:14.560Z,99772
2022-07-25T05:05:07.036Z,99769
2022-07-25T05:11:09.345Z,99769
2022-07-25T05:17:02.800Z,99770
2022-07-25T05:22:54.144Z,99775
2022-07-25T05:28:46.182Z,99767
2022-07-25T05:34:37.329Z,99756
2022-07-25T05:40:28.894Z,99755
2022-07-25T05:46:20.565Z,99746
2022-07-25T05:52:17.009Z,99732
2022-07-25T05:58:10.801Z,99733
2022-07-25T06:04:05.271Z,99733
2022-07-25T06:09:58.796Z,99727
2022-07-25T06:15:50.591Z,99723
2022-07-25T06:21:46.262Z,99723
2022-07-25T06:27:39.054Z,99725
2022-07-25T06:33:29.116Z,99722
2022-07-25T06:39:20.070Z,99732
2022-07-25T06:45:09.087Z,99721
2022-07-25T06:51:00.289Z,99726
2022-07-25T06:56:53.307Z,99735
2022-07-25T07:02:45.140Z,99721
2022-07-25T07:08:36.510Z,99714
2022-07-25T07:14:27.311Z,99716
2022-07-25T07:20:18.780Z,99710
2022-07-25T07:26:11.451Z,99703
2022-07-25T07:32:02.122Z,99690
2022-07-25T07:37:53.406Z,99705
2022-07-25T07:43:44.652Z,99716
2022-07-25T07:49:40.493Z,99708
2022-07-25T07:55:37.982Z,99701
2022-07-25T08:01:29.573Z,99690
2022-07-25T08:07:22.162Z,99687
2022-07-25T08:13:13.118Z,99685
2022-07-25T08:19:05.682Z,99685
2022-07-25T08:24:58.431Z,99663
2022-07-25T08:30:51.372Z,99671
2022-07-25T08:36:41.757Z,99673
2022-07-25T08:42:34.003Z,99683
2022-07-25T08:48:26.457Z,99691
2022-07-25T08:54:19.804Z,99684
2022-07-25T09:00:13.704Z,99669
2022-07-25T09:06:07.421Z,99676
2022-07-25T09:11:58.365Z,99679
2022-07-25T09:17:52.876Z,99669
2022-07-25T09:23:44.759Z,99664
2022-07-25T09:29:35.628Z,99669
2022-07-25T09:35:27.093Z,99676
2022-07-25T09:41:19.168Z,99684
2022-07-25T09:47:10.493Z,99689
2022-07-25T09:53:01.226Z,99699
2022-07-25T09:58:53.046Z,99706
2022-07-25T10:04:45.374Z,99698
2022-07-25T10:10:38.805Z,99699
2022-07-25T10:16:31.211Z,99694
2022-07-25T10:22:58.798Z,99711
2022-07-25T10:28:48.661Z,99694
2022-07-25T10:34:39.128Z,99701
2022-07-25T10:40:30.630Z,99681
2022-07-25T10:46:24.021Z,99681
2022-07-25T10:52:16.963Z,99716
2022-07-25T10:58:20.496Z,99732
2022-07-25T11:04:10.173Z,99718
2022-07-25T11:10:00.861Z,99694
2022-07-25T11:15:53.594Z,99690
2022-07-25T11:21:44.257Z,99693
2022-07-25T11:27:37.113Z,99710
2022-07-25T11:33:27.550Z,99716
2022-07-25T11:39:21.881Z,99704
2022-07-25T11:45:11.238Z,99702
2022-07-25T11:51:00.092Z,99712
2022-07-25T11:56:51.806Z,99710
2022-07-25T12:02:42.686Z,99707
2022-07-25T12:08:34.858Z,99709
2022-07-25T12:14:27.094Z,99721
2022-07-25T12:20:24.568Z,99722
2022-07-25T12:26:16.212Z,99719
2022-07-25T12:32:09.189Z,99710
2022-07-25T12:38:00.236Z,99711
2022-07-25T12:43:51.177Z,99714
2022-07-25T12:49:43.936Z,99707
2022-07-25T12:55:35.158Z,99701
2022-07-25T13:01:25.385Z,99719
2022-07-25T13:07:16.514Z,99721
2022-07-25T13:13:08.030Z,99717
2022-07-25T13:19:00.241Z,99716
2022-07-25T13:24:51.911Z,99734
2022-07-25T13:30:43.709Z,99735
2022-07-25T13:36:35.641Z,99739
2022-07-25T13:42:26.786Z,99742
2022-07-25T13:48:34.919Z,99744
2022-07-25T13:54:24.951Z,99727
2022-07-25T14:00:17.118Z,99713
2022-07-25T14:06:08.826Z,99727
2022-07-25T14:12:00.257Z,99722
2022-07-25T14:17:52.849Z,99726
2022-07-25T14:23:44.034Z,99736
2022-07-25T14:29:34.761Z,99746
2022-07-25T14:35:32.631Z,99759
2022-07-25T14:41:22.742Z,99745
2022-07-25T14:47:16.041Z,99754
2022-07-25T14:53:06.779Z,99760
2022-07-25T14:58:58.802Z,99762
2022-07-25T15:04:49.983Z,99766
2022-07-25T15:10:41.242Z,99778
2022-07-25T15:16:32.395Z,99783
2022-07-25T15:22:23.576Z,99780
2022-07-25T15:28:12.628Z,99788
2022-07-25T15:34:03.851Z,99803
2022-07-25T15:39:54.663Z,99792
2022-07-25T15:45:45.049Z,99815
2022-07-25T15:51:35.219Z,99853
2022-07-25T15:58:36.644Z,99848
2022-07-25T16:04:26.435Z,99863
2022-07-25T16:10:17.754Z,99878
2022-07-25T16:16:08.982Z,99877
2022-07-25T16:21:59.892Z,99867
2022-07-25T16:27:52.449Z,99882
2022-07-25T16:33:44.244Z,99883
2022-07-25T16:39:35.757Z,99886
2022-07-25T16:45:26.129Z,99886
2022-07-25T16:51:16.636Z,99880
2022-07-25T16:57:07.840Z,99885
2022-07-25T17:02:58.615Z,99886
2022-07-25T17:08:49.595Z,99884
2022-07-25T17:14:40.737Z,99891
2022-07-25T17:20:31.864Z,99888
2022-07-25T17:26:22.394Z,99889
2022-07-25T17:32:12.196Z,99899
2022-07-25T17:38:04.682Z,99897
2022-07-25T17:43:58.348Z,99896
2022-07-25T17:49:48.544Z,99904
2022-07-25T17:55:42.423Z,99911
2022-07-25T18:01:35.723Z,99913
2022-07-25T18:07:25.939Z,99925
2022-07-25T18:13:16.084Z,99926
2022-07-25T18:19:09.432Z,99920
2022-07-25T18:25:02.170Z,99933
2022-07-25T18:30:52.488Z,99939
2022-07-25T18:36:41.976Z,99939
2022-07-25T18:42:33.275Z,99965
2022-07-25T18:48:30.728Z,99962
2022-07-25T18:54:21.295Z,99951
2022-07-25T19:00:11.153Z,99959
2022-07-25T19:06:07.477Z,99960
2022-07-25T19:11:56.756Z,99963
2022-07-25T19:17:47.140Z,99966
2022-07-25T19:23:37.860Z,99971
2022-07-25T19:29:28.453Z,99973
2022-07-25T19:35:27.069Z,99981
2022-07-25T19:41:16.070Z,99990
2022-07-25T19:47:11.763Z,99990
2022-07-25T19:53:03.120Z,99998
2022-07-25T19:58:54.233Z,100006
2022-07-25T20:04:45.025Z,100023
2022-07-25T20:10:35.905Z,100033
2022-07-25T20:16:25.894Z,100029
2022-07-25T20:22:16.521Z,100040
2022-07-25T20:28:07.236Z,100041
2022-07-25T20:33:58.044Z,100038
2022-07-25T20:39:52.132Z,100052
2022-07-25T20:45:42.410Z,100058
2022-07-25T20:51:35.946Z,100072
2022-07-25T20:57:26.863Z,100081
2022-07-25T21:03:17.441Z,100079
2022-07-25T21:09:09.186Z,100089
2022-07-25T21:14:59.448Z,100100
2022-07-25T21:20:51.387Z,100109
2022-07-25T21:26:41.894Z,100120
2022-07-25T21:32:32.748Z,100118
2022-07-25T21:38:35.096Z,100116
2022-07-25T21:44:26.443Z,100127
2022-07-25T21:50:26.460Z,100135
2022-07-25T21:56:16.367Z,100148
2022-07-25T22:02:09.080Z,100150
2022-07-25T22:07:59.886Z,100164
2022-07-25T22:13:50.581Z,100176
2022-07-25T22:19:41.663Z,100178
2022-07-25T22:25:32.761Z,100183
2022-07-25T22:31:23.775Z,100191
2022-07-25T22:37:16.725Z,100199
2022-07-25T22:43:07.043Z,100201
2022-07-25T22:48:58.211Z,100214
2022-07-25T22:54:48.920Z,100208
2022-07-25T23:00:39.706Z,100214
2022-07-25T23:06:32.458Z,100213
2022-07-25T23:12:22.985Z,100215
2022-07-25T23:24:20.899Z,100209
2022-07-25T23:30:14.155Z,100216
2022-07-25T23:36:06.412Z,100220
2022-07-25T23:41:58.987Z,100207
2022-07-25T23:47:59.144Z,100204
2022-07-25T23:53:52.024Z,100203
2022-07-25T23:59:43.288Z,100186
